Time;durP1;ratioP1;P1;durP2;ratioP2;P2;SDS_P1;SDS_P2;PMS_P1;PMS_P2;Temp;Humidity;BMP_temperature;BMP_pressure;BME280_temperature;BME280_humidity;BME280_pressure;Samples;Min_cycle;Max_cycle;Signal;HPM_P1;HPM_P2
2023/03/31 00:00:13;;;;;;;8.90;5.40;;;;;;;;;;106592;1263;59713;-49
2023/03/31 00:02:58;;;;;;;10.00;6.30;;;;;;;;;;104969;1264;61347;-49
2023/03/31 00:05:26;;;;;;;10.60;5.90;;;;;;;;;;108632;1263;58663;-50
2023/03/31 00:07:59;;;;;;;12.40;5.90;;;;;;;;;;108683;1263;60427;-48
2023/03/31 00:10:28;;;;;;;8.20;4.20;;;;;;;;;;108617;1263;57338;-48
2023/03/31 00:12:57;;;;;;;9.30;4.50;;;;;;;;;;108645;1262;57832;-48
2023/03/31 00:15:26;;;;;;;7.10;3.50;;;;;;;;;;108610;1264;61102;-48
2023/03/31 00:17:53;;;;;;;8.30;3.80;;;;;;;;;;108654;1266;57663;-48
2023/03/31 00:20:24;;;;;;;11.00;3.50;;;;;;;;;;108663;1262;59770;-48
2023/03/31 00:22:53;;;;;;;8.90;4.70;;;;;;;;;;108639;1263;57682;-49
2023/03/31 00:25:21;;;;;;;10.70;4.20;;;;;;;;;;108651;1262;58859;-48
2023/03/31 00:27:49;;;;;;;10.00;4.80;;;;;;;;;;105934;1261;60729;-49
2023/03/31 00:30:17;;;;;;;6.40;3.90;;;;;;;;;;104960;1266;59648;-49
2023/03/31 00:32:47;;;;;;;9.10;4.20;;;;;;;;;;104948;1266;60442;-49
2023/03/31 00:35:15;;;;;;;10.20;5.00;;;;;;;;;;105268;1266;59708;-49
2023/03/31 00:37:44;;;;;;;8.50;4.80;;;;;;;;;;104898;1264;59768;-48
2023/03/31 00:40:13;;;;;;;11.30;5.70;;;;;;;;;;105216;1263;61280;-49
2023/03/31 00:42:41;;;;;;;14.00;6.80;;;;;;;;;;105179;1260;59632;-49
2023/03/31 00:45:12;;;;;;;13.10;6.30;;;;;;;;;;105140;1260;61140;-45
2023/03/31 00:47:41;;;;;;;11.40;6.10;;;;;;;;;;105165;1266;59769;-46
2023/03/31 00:50:17;;;;;;;14.30;6.70;;;;;;;;;;105548;1263;59618;-49
2023/03/31 00:52:46;;;;;;;11.00;6.80;;;;;;;;;;105192;1263;61128;-48
2023/03/31 00:55:17;;;;;;;11.70;7.30;;;;;;;;;;105617;1260;60684;-47
2023/03/31 00:57:46;;;;;;;12.40;7.10;;;;;;;;;;105078;1260;60617;-49
2023/03/31 01:00:15;;;;;;;9.10;6.20;;;;;;;;;;105971;1261;59703;-47
2023/03/31 01:02:57;;;;;;;13.30;7.30;;;;;;;;;;105287;1266;59643;-48
2023/03/31 01:05:27;;;;;;;13.00;6.60;;;;;;;;;;105476;1263;61174;-48
2023/03/31 01:07:56;;;;;;;11.50;6.40;;;;;;;;;;105204;1263;60045;-49
2023/03/31 01:10:24;;;;;;;9.20;5.90;;;;;;;;;;105469;1263;60437;-48
2023/03/31 01:12:53;;;;;;;10.10;4.40;;;;;;;;;;105555;1263;59717;-50
2023/03/31 01:15:21;;;;;;;8.80;5.50;;;;;;;;;;105513;1257;59632;-46
2023/03/31 01:17:49;;;;;;;8.40;5.30;;;;;;;;;;105892;1257;61595;-49
2023/03/31 01:20:47;;;;;;;8.20;5.30;;;;;;;;;;106841;1258;59046;-45
2023/03/31 01:23:18;;;;;;;9.10;5.30;;;;;;;;;;104795;1263;60668;-47
2023/03/31 01:26:06;;;;;;;9.40;4.30;;;;;;;;;;105286;1255;59733;-48
2023/03/31 01:28:43;;;;;;;7.80;4.30;;;;;;;;;;105543;1259;60175;-48
2023/03/31 01:31:24;;;;;;;9.70;4.80;;;;;;;;;;105293;1256;61490;-49
2023/03/31 01:33:59;;;;;;;12.00;5.10;;;;;;;;;;105342;1255;59714;-48
2023/03/31 01:36:38;;;;;;;9.00;4.60;;;;;;;;;;105406;1256;60827;-46
2023/03/31 01:39:42;;;;;;;7.30;4.40;;;;;;;;;;105411;1259;59736;-45
2023/03/31 01:42:12;;;;;;;13.50;5.40;;;;;;;;;;104728;1266;59728;-49
2023/03/31 01:44:43;;;;;;;11.60;4.10;;;;;;;;;;105366;1255;61072;-49
2023/03/31 01:47:21;;;;;;;7.70;4.40;;;;;;;;;;105369;1257;59608;-49
2023/03/31 01:49:58;;;;;;;14.50;5.70;;;;;;;;;;105442;1260;59950;-49
2023/03/31 01:52:40;;;;;;;9.50;5.00;;;;;;;;;;105849;1257;59674;-48
2023/03/31 01:55:11;;;;;;;10.90;5.80;;;;;;;;;;105405;1263;59682;-51
2023/03/31 01:57:40;;;;;;;9.40;5.90;;;;;;;;;;105207;1257;61251;-47
2023/03/31 02:00:10;;;;;;;10.70;5.60;;;;;;;;;;106292;1251;59532;-48
2023/03/31 02:02:56;;;;;;;9.20;5.70;;;;;;;;;;105911;1251;60610;-50
2023/03/31 02:05:25;;;;;;;14.30;5.70;;;;;;;;;;105992;1256;59739;-45
2023/03/31 02:08:09;;;;;;;13.40;6.90;;;;;;;;;;105663;1257;59624;-47
2023/03/31 02:10:38;;;;;;;12.00;7.10;;;;;;;;;;105783;1251;61278;-47
2023/03/31 02:13:12;;;;;;;13.70;6.90;;;;;;;;;;105732;1252;59496;-48
2023/03/31 02:15:43;;;;;;;17.70;8.60;;;;;;;;;;106056;1258;60980;-50
2023/03/31 02:18:12;;;;;;;19.90;10.90;;;;;;;;;;105891;1257;59931;-46
2023/03/31 02:20:41;;;;;;;14.90;9.00;;;;;;;;;;105677;1256;59615;-48
2023/03/31 02:23:11;;;;;;;17.50;10.40;;;;;;;;;;105634;1251;61030;-47
2023/03/31 02:25:45;;;;;;;16.00;9.00;;;;;;;;;;106335;1252;59493;-48
2023/03/31 02:28:17;;;;;;;13.40;8.70;;;;;;;;;;105532;1251;60757;-47
2023/03/31 02:30:48;;;;;;;14.30;7.80;;;;;;;;;;105615;1251;59569;-47
2023/03/31 02:33:16;;;;;;;14.50;7.30;;;;;;;;;;105932;1251;59625;-46
2023/03/31 02:35:44;;;;;;;14.60;6.40;;;;;;;;;;106291;1257;61402;-47
2023/03/31 02:38:12;;;;;;;13.00;7.00;;;;;;;;;;105429;1259;59539;-46
2023/03/31 02:40:41;;;;;;;11.10;6.10;;;;;;;;;;105921;1257;60703;-46
2023/03/31 02:43:09;;;;;;;11.50;6.70;;;;;;;;;;105736;1257;59717;-47
2023/03/31 02:45:40;;;;;;;13.40;7.30;;;;;;;;;;106169;1253;59596;-46
2023/03/31 02:48:10;;;;;;;22.90;11.10;;;;;;;;;;106542;1251;61477;-47
2023/03/31 02:51:00;;;;;;;25.40;12.60;;;;;;;;;;106056;1256;59537;-48
2023/03/31 02:53:35;;;;;;;24.80;11.70;;;;;;;;;;109292;1251;60482;-48
2023/03/31 02:56:11;;;;;;;23.10;9.30;;;;;;;;;;109288;1251;58562;-48
2023/03/31 02:58:43;;;;;;;17.60;8.20;;;;;;;;;;109274;1253;57953;-48
2023/03/31 03:01:24;;;;;;;12.90;8.10;;;;;;;;;;109317;1256;61057;-45
2023/03/31 03:03:59;;;;;;;16.90;8.60;;;;;;;;;;109295;1251;58465;-45
2023/03/31 03:06:52;;;;;;;16.40;8.60;;;;;;;;;;109338;1251;60853;-46
2023/03/31 03:09:28;;;;;;;13.00;7.60;;;;;;;;;;109315;1251;57357;-45
2023/03/31 03:12:11;;;;;;;9.80;7.30;;;;;;;;;;109326;1251;57482;-47
2023/03/31 03:14:50;;;;;;;13.50;7.40;;;;;;;;;;109329;1256;62614;-48
2023/03/31 03:17:24;;;;;;;13.50;8.60;;;;;;;;;;108939;1257;57599;-48
2023/03/31 03:19:54;;;;;;;9.30;7.20;;;;;;;;;;105741;1257;60760;-48
2023/03/31 03:22:22;;;;;;;14.40;7.80;;;;;;;;;;109018;1252;59343;-49
2023/03/31 03:24:51;;;;;;;15.00;8.00;;;;;;;;;;105681;1257;59720;-50
2023/03/31 03:27:21;;;;;;;12.20;7.50;;;;;;;;;;109326;1251;61354;-49
2023/03/31 03:29:49;;;;;;;9.60;6.10;;;;;;;;;;109326;1251;57779;-49
2023/03/31 03:32:17;;;;;;;9.50;5.90;;;;;;;;;;109316;1255;59488;-49
2023/03/31 03:34:45;;;;;;;10.20;5.40;;;;;;;;;;109336;1251;58167;-48
2023/03/31 03:37:12;;;;;;;9.30;5.70;;;;;;;;;;109309;1251;57401;-47
2023/03/31 03:39:40;;;;;;;10.70;6.30;;;;;;;;;;105697;1257;61357;-49
2023/03/31 03:42:09;;;;;;;8.80;5.20;;;;;;;;;;105630;1252;60143;-46
2023/03/31 03:44:38;;;;;;;13.00;7.40;;;;;;;;;;105753;1251;60948;-48
2023/03/31 03:47:06;;;;;;;17.30;8.20;;;;;;;;;;106107;1256;60288;-49
2023/03/31 03:49:35;;;;;;;17.70;9.10;;;;;;;;;;105703;1257;60510;-49
2023/03/31 03:52:03;;;;;;;13.60;9.20;;;;;;;;;;105601;1251;61946;-45
2023/03/31 03:54:31;;;;;;;18.20;9.00;;;;;;;;;;105645;1257;60418;-45
2023/03/31 03:56:59;;;;;;;13.70;7.70;;;;;;;;;;105659;1257;60634;-48
2023/03/31 03:59:27;;;;;;;15.30;7.20;;;;;;;;;;106677;1252;60672;-49
2023/03/31 04:01:55;;;;;;;16.50;9.30;;;;;;;;;;106481;1256;60394;-48
2023/03/31 04:04:24;;;;;;;23.20;11.10;;;;;;;;;;106264;1251;61893;-47
2023/03/31 04:06:52;;;;;;;29.50;14.50;;;;;;;;;;106199;1256;60405;-47
2023/03/31 04:09:20;;;;;;;27.60;12.30;;;;;;;;;;105716;1263;60714;-48
2023/03/31 04:11:48;;;;;;;23.00;10.60;;;;;;;;;;105586;1257;61130;-45
2023/03/31 04:14:16;;;;;;;23.00;9.80;;;;;;;;;;105720;1254;60444;-47
2023/03/31 04:16:45;;;;;;;15.70;7.90;;;;;;;;;;105783;1256;61877;-44
2023/03/31 04:19:16;;;;;;;15.00;8.10;;;;;;;;;;106434;1256;60492;-46
2023/03/31 04:21:44;;;;;;;12.40;6.80;;;;;;;;;;105712;1251;60796;-46
2023/03/31 04:24:14;;;;;;;10.00;4.90;;;;;;;;;;105567;1256;60418;-46
2023/03/31 04:26:42;;;;;;;9.10;5.20;;;;;;;;;;105795;1251;60442;-47
2023/03/31 04:29:15;;;;;;;11.40;4.90;;;;;;;;;;106273;1257;61799;-48
2023/03/31 04:31:43;;;;;;;9.10;4.40;;;;;;;;;;105819;1255;61055;-46
2023/03/31 04:34:12;;;;;;;7.10;4.00;;;;;;;;;;105728;1251;61736;-44
2023/03/31 04:36:47;;;;;;;10.20;5.10;;;;;;;;;;105957;1260;60901;-44
2023/03/31 04:39:15;;;;;;;;;;;;;;;;;;105767;1254;60530;-47
2023/03/31 04:41:47;;;;;;;4.10;2.40;;;;;;;;;;105619;1253;62033;-50
2023/03/31 04:44:15;;;;;;;4.20;2.20;;;;;;;;;;105889;1256;60946;-47
2023/03/31 04:46:43;;;;;;;6.40;3.10;;;;;;;;;;106341;1252;60696;-43
2023/03/31 04:49:14;;;;;;;8.10;3.20;;;;;;;;;;105791;1256;60341;-46
2023/03/31 04:51:43;;;;;;;6.30;3.10;;;;;;;;;;106281;1257;60437;-46
2023/03/31 04:54:15;;;;;;;7.40;3.90;;;;;;;;;;106747;1252;62127;-49
2023/03/31 04:56:44;;;;;;;8.10;4.40;;;;;;;;;;105752;1264;60448;-45
2023/03/31 04:59:12;;;;;;;8.40;3.40;;;;;;;;;;105669;1257;60540;-48
2023/03/31 05:01:44;;;;;;;6.40;3.50;;;;;;;;;;105712;1257;60414;-47
2023/03/31 05:04:12;;;;;;;7.00;3.60;;;;;;;;;;105997;1256;60336;-49
2023/03/31 05:06:41;;;;;;;11.30;4.20;;;;;;;;;;105594;1251;61851;-47
2023/03/31 05:09:09;;;;;;;6.00;3.30;;;;;;;;;;105736;1257;61296;-48
2023/03/31 05:11:37;;;;;;;4.60;2.90;;;;;;;;;;106390;1257;60671;-49
2023/03/31 05:14:05;;;;;;;6.70;3.70;;;;;;;;;;107871;1252;60533;-48
2023/03/31 05:16:33;;;;;;;5.10;2.50;;;;;;;;;;106186;1251;60425;-45
2023/03/31 05:19:01;;;;;;;5.90;3.20;;;;;;;;;;106947;1251;62705;-48
2023/03/31 05:21:30;;;;;;;4.90;2.80;;;;;;;;;;105772;1257;60334;-48
2023/03/31 05:23:58;;;;;;;4.80;2.50;;;;;;;;;;106271;1256;60782;-47
2023/03/31 05:26:25;;;;;;;4.00;2.80;;;;;;;;;;105712;1251;60363;-48
2023/03/31 05:28:53;;;;;;;3.90;2.40;;;;;;;;;;105670;1253;60373;-49
2023/03/31 05:31:21;;;;;;;3.40;1.70;;;;;;;;;;105717;1251;60870;-47
2023/03/31 05:33:50;;;;;;;3.50;1.90;;;;;;;;;;106501;1254;60315;-48
2023/03/31 05:36:18;;;;;;;4.50;1.90;;;;;;;;;;105695;1257;60974;-47
2023/03/31 05:38:47;;;;;;;2.90;1.80;;;;;;;;;;106006;1257;60425;-47
2023/03/31 05:41:15;;;;;;;5.00;1.90;;;;;;;;;;107230;1254;60415;-47
2023/03/31 05:43:43;;;;;;;5.90;1.40;;;;;;;;;;105833;1257;62147;-46
2023/03/31 05:46:12;;;;;;;3.30;1.30;;;;;;;;;;106148;1256;60415;-47
2023/03/31 05:48:40;;;;;;;2.80;1.30;;;;;;;;;;105795;1251;60912;-47
2023/03/31 05:51:08;;;;;;;3.80;2.30;;;;;;;;;;105914;1251;60552;-48
2023/03/31 05:53:37;;;;;;;3.20;1.60;;;;;;;;;;109308;1251;58317;-45
2023/03/31 05:56:08;;;;;;;4.40;1.80;;;;;;;;;;109349;1251;61534;-45
2023/03/31 05:58:36;;;;;;;4.00;1.40;;;;;;;;;;109307;1251;58593;-46
2023/03/31 06:01:10;;;;;;;4.60;1.80;;;;;;;;;;109320;1254;60783;-46
2023/03/31 06:03:40;;;;;;;9.20;3.40;;;;;;;;;;109355;1251;58459;-46
2023/03/31 06:06:09;;;;;;;5.20;2.20;;;;;;;;;;109282;1252;58442;-45
2023/03/31 06:08:46;;;;;;;7.30;3.60;;;;;;;;;;109377;1251;62032;-46
2023/03/31 06:11:15;;;;;;;11.70;7.50;;;;;;;;;;109333;1250;59122;-49
2023/03/31 06:13:43;;;;;;;10.60;5.30;;;;;;;;;;109288;1251;59547;-45
2023/03/31 06:16:12;;;;;;;9.70;6.70;;;;;;;;;;109374;1251;58334;-46
2023/03/31 06:18:40;;;;;;;6.70;4.50;;;;;;;;;;109325;1251;58590;-47
2023/03/31 06:21:10;;;;;;;5.50;3.30;;;;;;;;;;109342;1251;62167;-46
2023/03/31 06:23:38;;;;;;;5.30;3.00;;;;;;;;;;109255;1250;59317;-45
2023/03/31 06:26:07;;;;;;;6.60;3.00;;;;;;;;;;109370;1251;59708;-46
2023/03/31 06:28:35;;;;;;;8.30;3.60;;;;;;;;;;109287;1251;58760;-46
2023/03/31 06:31:06;;;;;;;11.20;7.10;;;;;;;;;;109310;1251;58130;-45
2023/03/31 06:33:35;;;;;;;7.60;3.70;;;;;;;;;;109330;1251;62130;-47
2023/03/31 06:36:04;;;;;;;5.00;2.50;;;;;;;;;;109318;1254;58113;-46
2023/03/31 06:38:33;;;;;;;6.40;3.40;;;;;;;;;;108277;1251;60533;-46
2023/03/31 06:41:01;;;;;;;2.80;2.10;;;;;;;;;;106066;1257;60639;-47
2023/03/31 06:43:29;;;;;;;3.60;1.90;;;;;;;;;;106424;1257;59005;-47
2023/03/31 06:45:58;;;;;;;4.50;1.50;;;;;;;;;;107254;1251;62337;-46
2023/03/31 06:48:26;;;;;;;3.50;2.10;;;;;;;;;;106288;1256;60422;-46
2023/03/31 06:51:00;;;;;;;4.40;2.30;;;;;;;;;;105375;1256;62693;-49
2023/03/31 06:53:28;;;;;;;4.80;2.80;;;;;;;;;;105384;1257;60520;-47
2023/03/31 06:55:56;;;;;;;2.50;1.50;;;;;;;;;;105397;1256;60428;-51
2023/03/31 06:58:25;;;;;;;6.00;1.60;;;;;;;;;;109214;1252;61725;-46
2023/03/31 07:00:56;;;;;;;3.70;1.90;;;;;;;;;;106032;1253;60405;-50
2023/03/31 07:03:24;;;;;;;6.60;3.10;;;;;;;;;;105554;1251;60724;-47
2023/03/31 07:05:53;;;;;;;3.70;1.70;;;;;;;;;;105923;1256;60577;-48
2023/03/31 07:08:21;;;;;;;3.00;1.60;;;;;;;;;;106417;1251;60376;-47
2023/03/31 07:10:54;;;;;;;2.10;1.50;;;;;;;;;;109136;1254;62126;-51
2023/03/31 07:13:24;;;;;;;4.20;1.40;;;;;;;;;;107805;1254;58990;-47
2023/03/31 07:15:53;;;;;;;3.10;1.70;;;;;;;;;;105488;1251;60768;-50
2023/03/31 07:18:24;;;;;;;2.30;1.50;;;;;;;;;;105968;1251;60501;-49
2023/03/31 07:20:53;;;;;;;2.10;1.60;;;;;;;;;;106082;1254;60558;-48
2023/03/31 07:23:21;;;;;;;3.80;2.20;;;;;;;;;;105874;1251;62210;-46
2023/03/31 07:25:51;;;;;;;2.50;1.30;;;;;;;;;;106271;1254;61218;-51
2023/03/31 07:28:19;;;;;;;2.10;0.90;;;;;;;;;;105989;1257;60712;-49
2023/03/31 07:30:47;;;;;;;3.50;1.90;;;;;;;;;;105868;1257;60527;-48
2023/03/31 07:33:16;;;;;;;2.80;1.60;;;;;;;;;;105874;1255;60393;-48
2023/03/31 07:35:44;;;;;;;5.00;1.70;;;;;;;;;;105943;1254;62031;-47
2023/03/31 07:38:23;;;;;;;3.10;1.90;;;;;;;;;;105855;1255;60987;-46
2023/03/31 07:40:51;;;;;;;2.10;1.70;;;;;;;;;;105760;1256;62097;-47
2023/03/31 07:43:35;;;;;;;3.60;2.10;;;;;;;;;;105821;1256;61614;-48
2023/03/31 07:46:04;;;;;;;2.20;1.30;;;;;;;;;;105843;1251;60352;-46
2023/03/31 07:48:33;;;;;;;2.80;1.60;;;;;;;;;;106073;1251;62206;-47
2023/03/31 07:51:01;;;;;;;7.50;2.60;;;;;;;;;;106063;1256;60357;-50
2023/03/31 07:53:33;;;;;;;3.00;2.50;;;;;;;;;;108866;1251;60792;-49
2023/03/31 07:56:01;;;;;;;5.00;2.10;;;;;;;;;;105939;1251;60518;-46
2023/03/31 07:58:29;;;;;;;3.70;2.00;;;;;;;;;;105905;1254;60312;-46
2023/03/31 08:00:57;;;;;;;4.30;2.00;;;;;;;;;;106059;1251;62153;-46
2023/03/31 08:03:26;;;;;;;3.70;2.40;;;;;;;;;;105859;1251;60433;-47
2023/03/31 08:05:55;;;;;;;7.20;3.90;;;;;;;;;;105869;1257;61132;-46
2023/03/31 08:08:23;;;;;;;9.80;4.40;;;;;;;;;;105876;1256;60415;-46
2023/03/31 08:10:51;;;;;;;6.20;3.50;;;;;;;;;;105597;1251;60419;-50
2023/03/31 08:13:20;;;;;;;3.40;2.70;;;;;;;;;;105581;1256;61182;-47
2023/03/31 08:15:48;;;;;;;4.20;2.30;;;;;;;;;;105615;1256;60574;-46
2023/03/31 08:18:16;;;;;;;3.50;1.90;;;;;;;;;;105688;1255;60704;-48
2023/03/31 08:20:44;;;;;;;5.90;2.70;;;;;;;;;;105707;1257;60520;-48
2023/03/31 08:23:16;;;;;;;10.10;2.20;;;;;;;;;;106525;1251;60408;-48
2023/03/31 08:25:44;;;;;;;3.30;1.50;;;;;;;;;;105647;1251;62140;-48
2023/03/31 08:28:13;;;;;;;4.50;2.10;;;;;;;;;;106766;1256;60344;-49
2023/03/31 08:30:41;;;;;;;2.90;1.90;;;;;;;;;;106466;1251;60341;-47
2023/03/31 08:33:11;;;;;;;3.60;2.20;;;;;;;;;;105654;1251;60405;-47
2023/03/31 08:35:39;;;;;;;5.90;1.90;;;;;;;;;;106091;1251;60460;-48
2023/03/31 08:38:07;;;;;;;2.70;1.50;;;;;;;;;;105990;1251;61883;-47
2023/03/31 08:40:34;;;;;;;2.60;1.50;;;;;;;;;;106742;1254;60350;-49
2023/03/31 08:43:07;;;;;;;15.10;1.60;;;;;;;;;;106552;1256;60513;-47
2023/03/31 08:45:37;;;;;;;3.30;1.30;;;;;;;;;;105468;1253;60456;-47
2023/03/31 08:48:10;;;;;;;2.50;1.90;;;;;;;;;;105686;1251;60755;-47
2023/03/31 08:50:41;;;;;;;7.10;1.40;;;;;;;;;;106894;1255;62133;-48
2023/03/31 08:53:18;;;;;;;3.00;1.60;;;;;;;;;;105706;1257;60614;-46
2023/03/31 08:55:47;;;;;;;2.40;1.50;;;;;;;;;;105721;1251;60547;-46
2023/03/31 08:58:18;;;;;;;2.20;1.30;;;;;;;;;;106834;1253;60401;-48
2023/03/31 09:00:50;;;;;;;6.40;2.00;;;;;;;;;;106224;1251;60411;-48
2023/03/31 09:03:39;;;;;;;3.70;1.50;;;;;;;;;;107187;1251;61234;-47
2023/03/31 09:06:09;;;;;;;2.90;1.80;;;;;;;;;;105421;1256;60589;-48
2023/03/31 09:08:38;;;;;;;3.80;1.70;;;;;;;;;;109295;1251;60764;-48
2023/03/31 09:11:07;;;;;;;3.80;1.40;;;;;;;;;;107211;1254;60414;-47
2023/03/31 09:13:35;;;;;;;2.90;1.70;;;;;;;;;;106983;1253;60418;-46
2023/03/31 09:16:03;;;;;;;4.20;1.70;;;;;;;;;;109291;1251;61829;-46
2023/03/31 09:18:35;;;;;;;3.20;1.70;;;;;;;;;;107889;1251;59537;-48
2023/03/31 09:21:11;;;;;;;2.90;1.50;;;;;;;;;;109348;1253;60718;-48
2023/03/31 09:23:48;;;;;;;3.80;1.60;;;;;;;;;;109287;1255;58325;-48
2023/03/31 09:26:22;;;;;;;4.50;1.70;;;;;;;;;;107231;1256;60575;-47
2023/03/31 09:28:50;;;;;;;6.80;2.10;;;;;;;;;;105606;1251;62105;-49
2023/03/31 09:31:18;;;;;;;2.60;1.80;;;;;;;;;;109250;1251;58602;-47
2023/03/31 09:33:47;;;;;;;4.40;1.90;;;;;;;;;;108662;1253;59652;-47
2023/03/31 09:36:16;;;;;;;3.10;1.20;;;;;;;;;;109242;1251;58594;-47
2023/03/31 09:38:45;;;;;;;5.40;2.00;;;;;;;;;;109292;1251;58133;-47
2023/03/31 09:41:13;;;;;;;3.10;1.90;;;;;;;;;;109273;1251;63396;-49
2023/03/31 09:43:42;;;;;;;3.90;1.60;;;;;;;;;;109286;1251;58254;-47
2023/03/31 09:46:17;;;;;;;14.90;2.70;;;;;;;;;;109221;1251;60825;-49
2023/03/31 09:49:04;;;;;;;6.50;1.40;;;;;;;;;;107079;1254;60501;-45
2023/03/31 09:51:33;;;;;;;2.90;1.90;;;;;;;;;;109333;1251;58266;-50
2023/03/31 09:54:20;;;;;;;3.10;2.10;;;;;;;;;;109331;1251;62266;-49
2023/03/31 09:56:49;;;;;;;4.00;2.20;;;;;;;;;;105832;1256;60353;-49
2023/03/31 09:59:29;;;;;;;3.30;2.10;;;;;;;;;;107630;1251;60280;-48
2023/03/31 10:01:59;;;;;;;19.90;4.00;;;;;;;;;;105640;1252;60536;-49
2023/03/31 10:04:28;;;;;;;4.10;2.40;;;;;;;;;;106489;1257;60306;-46
2023/03/31 10:06:58;;;;;;;3.80;3.30;;;;;;;;;;105579;1251;61176;-46
2023/03/31 10:09:30;;;;;;;3.80;2.60;;;;;;;;;;105662;1251;60444;-49
2023/03/31 10:12:01;;;;;;;7.40;2.20;;;;;;;;;;105681;1257;60489;-47
2023/03/31 10:14:44;;;;;;;5.00;3.40;;;;;;;;;;105710;1251;60472;-48
2023/03/31 10:17:16;;;;;;;4.80;2.10;;;;;;;;;;105843;1255;60463;-46
2023/03/31 10:19:50;;;;;;;3.40;2.00;;;;;;;;;;105631;1251;61123;-48
2023/03/31 10:22:21;;;;;;;7.90;3.50;;;;;;;;;;105635;1255;60398;-49
2023/03/31 10:24:50;;;;;;;6.50;4.10;;;;;;;;;;105610;1251;61066;-49
2023/03/31 10:27:24;;;;;;;9.40;3.80;;;;;;;;;;105550;1257;60501;-45
2023/03/31 10:29:53;;;;;;;6.50;4.70;;;;;;;;;;105709;1255;60399;-50
2023/03/31 10:32:23;;;;;;;7.20;5.00;;;;;;;;;;106817;1253;61127;-47
2023/03/31 10:34:51;;;;;;;5.70;4.80;;;;;;;;;;106147;1256;60424;-48
2023/03/31 10:37:21;;;;;;;7.90;3.90;;;;;;;;;;105756;1257;60565;-50
2023/03/31 10:39:55;;;;;;;6.80;5.00;;;;;;;;;;105689;1256;60325;-45
2023/03/31 10:42:23;;;;;;;11.10;5.00;;;;;;;;;;105920;1256;60434;-50
2023/03/31 10:45:08;;;;;;;12.70;8.50;;;;;;;;;;105901;1251;62165;-50
2023/03/31 10:47:37;;;;;;;11.10;5.70;;;;;;;;;;105835;1256;60438;-46
2023/03/31 10:50:11;;;;;;;12.80;8.10;;;;;;;;;;105575;1251;61784;-50
2023/03/31 10:52:44;;;;;;;8.00;4.60;;;;;;;;;;105587;1251;60447;-47
2023/03/31 10:55:13;;;;;;;6.20;4.20;;;;;;;;;;106339;1257;60437;-48
2023/03/31 10:57:52;;;;;;;16.20;11.40;;;;;;;;;;105833;1251;62115;-47
2023/03/31 11:00:26;;;;;;;9.90;6.70;;;;;;;;;;106331;1257;60386;-46
2023/03/31 11:02:54;;;;;;;9.40;5.90;;;;;;;;;;105714;1256;59806;-48
2023/03/31 11:05:35;;;;;;;10.40;4.90;;;;;;;;;;105990;1251;60539;-48
2023/03/31 11:08:23;;;;;;;4.30;2.90;;;;;;;;;;105787;1257;60431;-48
2023/03/31 11:10:53;;;;;;;6.40;4.40;;;;;;;;;;105574;1254;61432;-47
2023/03/31 11:13:31;;;;;;;9.90;6.90;;;;;;;;;;105708;1251;61682;-48
2023/03/31 11:16:02;;;;;;;6.40;3.00;;;;;;;;;;109181;1251;59933;-47
2023/03/31 11:18:46;;;;;;;4.60;3.50;;;;;;;;;;109267;1251;58180;-47
2023/03/31 11:21:20;;;;;;;3.30;1.60;;;;;;;;;;105966;1253;61772;-51
2023/03/31 11:23:52;;;;;;;6.50;2.50;;;;;;;;;;105652;1251;62009;-47
2023/03/31 11:26:26;;;;;;;6.50;3.20;;;;;;;;;;107377;1251;60540;-49
2023/03/31 11:29:00;;;;;;;2.20;1.90;;;;;;;;;;104943;1251;60520;-49
2023/03/31 11:31:41;;;;;;;6.10;2.30;;;;;;;;;;109052;1255;59335;-45
2023/03/31 11:34:18;;;;;;;5.60;3.00;;;;;;;;;;105497;1251;60614;-46
2023/03/31 11:37:07;;;;;;;3.20;2.30;;;;;;;;;;105619;1251;62136;-50
2023/03/31 11:39:39;;;;;;;4.40;2.20;;;;;;;;;;105549;1255;60428;-48
2023/03/31 11:42:34;;;;;;;4.30;2.00;;;;;;;;;;105621;1251;60868;-47
2023/03/31 11:48:30;;;;;;;8.70;3.20;;;;;;;9.69;100.00;98472.02;102402;1289;602458;-48
2023/03/31 11:50:57;;;;;;;4.20;2.70;;;;;;;9.71;100.00;98470.67;104323;1268;60355;-47
2023/03/31 11:53:27;;;;;;;3.70;1.80;;;;;;;9.71;100.00;98468.34;103972;1268;62117;-49
2023/03/31 11:55:54;;;;;;;2.10;1.90;;;;;;;9.71;100.00;98461.49;104264;1271;71679;-46
2023/03/31 11:58:56;;;;;;;5.10;2.50;;;;;;;9.72;100.00;98455.56;106067;1271;66812;-47
2023/03/31 12:01:41;;;;;;;2.70;1.80;;;;;;;9.72;100.00;98455.88;104081;1268;175482;-46
2023/03/31 12:04:38;;;;;;;5.30;2.20;;;;;;;9.72;100.00;98450.19;104463;1270;60557;-45
2023/03/31 12:07:18;;;;;;;4.60;2.10;;;;;;;9.72;100.00;98450.32;104524;1267;60307;-47
2023/03/31 12:10:04;;;;;;;7.00;2.00;;;;;;;9.73;100.00;98445.47;105066;1267;71814;-47
2023/03/31 12:12:34;;;;;;;4.60;1.80;;;;;;;9.73;100.00;98440.98;105293;1270;66604;-48
2023/03/31 12:15:24;;;;;;;5.80;1.70;;;;;;;9.74;100.00;98440.19;105330;1266;72813;-48
2023/03/31 12:17:59;;;;;;;2.60;2.00;;;;;;;9.78;100.00;98434.77;108245;1269;59426;-48
2023/03/31 12:20:33;;;;;;;2.90;2.00;;;;;;;9.82;100.00;98432.52;108145;1266;60745;-49
2023/03/31 12:23:00;;;;;;;3.50;1.80;;;;;;;9.83;100.00;98428.98;108198;1266;74148;-50
2023/03/31 12:25:38;;;;;;;5.60;1.70;;;;;;;9.85;100.00;98427.30;108209;1270;67167;-50
2023/03/31 12:28:05;;;;;;;2.50;1.50;;;;;;;9.85;100.00;98429.77;108078;1266;72750;-51
2023/03/31 12:30:38;;;;;;;3.20;1.50;;;;;;;9.86;100.00;98423.06;108349;1266;61190;-50
2023/03/31 12:33:06;;;;;;;3.50;1.60;;;;;;;9.87;100.00;98424.62;108107;1267;58116;-47
2023/03/31 12:35:32;;;;;;;3.70;1.50;;;;;;;9.87;100.00;98422.11;108153;1266;73078;-48
2023/03/31 12:38:02;;;;;;;2.10;1.20;;;;;;;9.87;100.00;98417.66;108199;1266;68863;-48
2023/03/31 12:40:34;;;;;;;6.70;5.60;;;;;;;9.87;100.00;98415.80;108155;1267;72346;-50
2023/03/31 12:43:07;;;;;;;3.10;2.10;;;;;;;9.87;100.00;98416.05;108267;1266;60816;-51
2023/03/31 12:45:51;;;;;;;2.80;1.90;;;;;;;9.86;100.00;98413.39;108253;1266;60834;-50
2023/03/31 12:48:33;;;;;;;3.60;1.70;;;;;;;9.84;100.00;98409.81;108301;1267;74004;-50
2023/03/31 12:51:11;;;;;;;4.40;2.20;;;;;;;9.80;100.00;98408.80;108226;1266;67281;-51
2023/03/31 12:53:55;;;;;;;6.40;2.00;;;;;;;9.77;100.00;98411.34;108278;1267;71781;-50
2023/03/31 12:56:22;;;;;;;4.20;2.00;;;;;;;9.76;100.00;98406.04;108211;1267;58477;-50
2023/03/31 12:58:48;;;;;;;3.80;1.70;;;;;;;9.75;100.00;98401.08;108162;1266;59647;-50
2023/03/31 13:01:22;;;;;;;1.60;1.20;;;;;;;9.75;100.00;98397.66;108217;1266;71915;-50
2023/03/31 13:04:25;;;;;;;3.30;1.90;;;;;;;9.75;100.00;98394.83;108182;1266;69743;-50
2023/03/31 13:06:53;;;;;;;4.20;1.60;;;;;;;9.75;100.00;98390.15;105523;1274;72945;-49
2023/03/31 13:09:50;;;;;;;4.30;1.50;;;;;;;9.76;100.00;98390.44;105103;1267;59756;-49
2023/03/31 13:12:22;;;;;;;6.70;1.50;;;;;;;9.78;100.00;98391.23;108153;1270;61849;-50
2023/03/31 13:14:52;;;;;;;3.60;1.80;;;;;;;9.77;100.00;98389.83;107077;1269;73935;-49
2023/03/31 13:17:21;;;;;;;3.00;1.70;;;;;;;9.77;100.00;98391.31;104697;1265;69290;-48
2023/03/31 13:19:48;;;;;;;3.20;1.10;;;;;;;9.75;100.00;98384.98;106199;1269;75118;-48
2023/03/31 13:22:35;;;;;;;2.20;1.10;;;;;;;9.73;100.00;98380.78;104543;1266;60372;-50
2023/03/31 13:25:36;;;;;;;2.50;1.30;;;;;;;9.71;100.00;98378.06;105988;1268;59201;-48
2023/03/31 13:28:14;;;;;;;2.80;1.00;;;;;;;9.66;100.00;98376.77;105269;1270;73229;-50
2023/03/31 13:30:46;;;;;;;2.30;1.20;;;;;;;9.62;100.00;98375.98;104785;1270;67305;-48
2023/03/31 13:33:27;;;;;;;2.50;1.30;;;;;;;9.56;100.00;98369.21;104935;1266;71599;-49
2023/03/31 13:36:16;;;;;;;4.90;1.70;;;;;;;9.49;100.00;98372.56;104923;1272;61007;-50
2023/03/31 13:39:05;;;;;;;2.60;1.30;;;;;;;9.41;100.00;98372.90;104435;1266;60486;-51
2023/03/31 13:41:51;;;;;;;2.40;1.50;;;;;;;9.32;100.00;98375.95;104414;1269;72328;-50
2023/03/31 13:44:55;;;;;;;2.30;1.90;;;;;;;9.25;100.00;98375.18;104513;1272;67388;-47
2023/03/31 13:47:57;;;;;;;3.00;2.20;;;;;;;9.16;100.00;98376.86;104500;1267;73067;-51
2023/03/31 13:50:52;;;;;;;4.00;3.20;;;;;;;9.08;100.00;98379.54;104449;1269;59622;-49
2023/03/31 13:53:47;;;;;;;4.30;2.50;;;;;;;9.00;100.00;98387.04;105235;1269;61039;-49
2023/03/31 13:56:44;;;;;;;3.20;2.30;;;;;;;8.93;100.00;98383.17;104590;1270;72039;-47
2023/03/31 13:59:45;;;;;;;4.70;2.00;;;;;;;8.85;100.00;98384.19;104842;1268;68116;-50
2023/03/31 14:02:46;;;;;;;2.10;1.90;;;;;;;8.78;100.00;98382.13;104486;1271;71996;-48
2023/03/31 14:05:32;;;;;;;2.20;2.00;;;;;;;8.72;100.00;98379.46;104456;1271;59727;-50
2023/03/31 14:08:17;;;;;;;2.90;1.70;;;;;;;8.67;100.00;98377.27;104703;1269;59682;-50
2023/03/31 14:10:44;;;;;;;3.20;2.30;;;;;;;8.64;100.00;98376.93;104872;1271;72121;-49
2023/03/31 14:13:15;;;;;;;6.20;2.20;;;;;;;8.62;100.00;98373.13;104412;1272;68347;-50
2023/03/31 14:16:02;;;;;;;2.40;1.50;;;;;;;8.59;100.00;98375.45;104674;1272;72378;-51
2023/03/31 14:18:32;;;;;;;3.40;1.70;;;;;;;8.54;100.00;98373.61;104898;1266;59884;-49
2023/03/31 14:21:29;;;;;;;4.60;1.50;;;;;;;8.51;100.00;98374.37;107056;1269;59877;-51